Time;durP1;ratioP1;P1;durP2;ratioP2;P2;SDS_P1;SDS_P2;PMS_P1;PMS_P2;Temp;Humidity;BMP_temperature;BMP_pressure;BME280_temperature;BME280_humidity;BME280_pressure;Samples;Min_cycle;Max_cycle;Signal;HPM_P1;HPM_P2
2022/09/30 00:01:44;;;;;;;;;1.60;0.80;;;;;22.71;41.34;98493.38;5071137;28;8869;-83
2022/09/30 00:04:15;;;;;;;;;0.20;0.20;;;;;22.73;41.46;98502.09;5053834;28;8927;-80
2022/09/30 00:06:45;;;;;;;;;2.00;1.00;;;;;22.82;41.37;98508.63;5070387;28;8850;-81
2022/09/30 00:09:14;;;;;;;;;0.60;0.60;;;;;22.76;41.52;98509.88;5071148;28;8890;-84
2022/09/30 00:11:43;;;;;;;;;1.60;0.60;;;;;22.63;42.04;98507.19;5071328;28;8875;-83
2022/09/30 00:14:16;;;;;;;;;1.80;1.80;;;;;22.69;41.92;98506.78;5055228;28;9005;-82
2022/09/30 00:16:45;;;;;;;;;1.00;1.00;;;;;22.63;42.11;98512.50;5054673;28;8835;-84
2022/09/30 00:19:15;;;;;;;;;1.80;1.40;;;;;22.73;41.99;98500.28;5054207;28;8931;-82
2022/09/30 00:21:45;;;;;;;;;0.60;0.60;;;;;22.75;41.76;98500.19;5067031;28;8856;-83
2022/09/30 00:24:13;;;;;;;;;0.80;0.80;;;;;22.88;41.54;98484.28;5052159;28;8933;-83
2022/09/30 00:26:42;;;;;;;;;0.00;0.00;;;;;23.01;41.25;98477.16;5034531;28;8869;-82
2022/09/30 00:29:11;;;;;;;;;1.40;1.40;;;;;23.12;40.99;98484.44;5051322;28;8972;-82
2022/09/30 00:31:40;;;;;;;;;1.20;0.00;;;;;23.23;40.85;98476.56;5050288;28;9619;-80
2022/09/30 00:34:09;;;;;;;;;0.60;0.60;;;;;23.15;40.67;98476.22;5034284;28;8869;-81
2022/09/30 00:36:42;;;;;;;;;0.00;0.00;;;;;23.22;40.74;98474.00;5033664;28;8845;-85
2022/09/30 00:39:15;;;;;;;;;0.60;0.60;;;;;23.30;40.74;98480.47;5052113;28;8883;-83
2022/09/30 00:41:46;;;;;;;;;0.60;0.60;;;;;23.18;41.09;98499.13;5072536;28;8876;-82
2022/09/30 00:44:49;;;;;;;;;0.60;0.60;;;;;23.11;40.72;98502.16;5044504;28;8867;-84
2022/09/30 00:47:38;;;;;;;;;0.60;0.60;;;;;23.08;41.21;98505.06;5004671;28;8881;-82
2022/09/30 00:50:17;;;;;;;;;0.80;0.80;;;;;22.98;41.29;98501.28;5033170;28;8874;-82
2022/09/30 00:52:50;;;;;;;;;0.20;0.20;;;;;23.07;41.14;98513.13;5050523;28;8981;-83
2022/09/30 00:55:36;;;;;;;;;2.20;2.20;;;;;21.35;46.90;98538.28;5055144;28;8898;-82
2022/09/30 00:58:09;;;;;;;;;2.20;2.00;;;;;20.73;48.95;98541.09;5052656;28;8909;-82
2022/09/30 01:00:38;;;;;;;;;3.00;3.00;;;;;21.45;46.90;98518.22;5019651;28;9004;-82
2022/09/30 01:03:07;;;;;;;;;2.00;2.00;;;;;20.82;48.89;98528.16;5065747;28;8874;-81
2022/09/30 01:05:35;;;;;;;;;3.60;3.60;;;;;20.27;51.01;98541.06;5032271;28;8870;-80
2022/09/30 01:08:07;;;;;;;;;3.00;3.00;;;;;20.44;50.75;98536.50;5048105;28;8854;-81
2022/09/30 01:10:37;;;;;;;;;2.00;2.00;;;;;20.92;49.26;98517.84;5058431;28;8872;-80
2022/09/30 01:13:06;;;;;;;;;2.00;2.00;;;;;21.25;48.11;98515.91;5049960;28;8842;-80
2022/09/30 01:15:56;;;;;;;;;2.00;2.00;;;;;21.50;47.57;98518.81;5033722;28;8868;-81
2022/09/30 01:18:37;;;;;;;;;3.00;3.00;;;;;20.82;49.95;98527.31;5049120;28;8845;-79
2022/09/30 01:21:34;;;;;;;;;4.20;4.20;;;;;21.11;48.85;98532.66;5016778;28;8856;-80
2022/09/30 01:24:22;;;;;;;;;3.80;3.80;;;;;21.55;47.54;98518.50;5016540;28;8876;-82
2022/09/30 01:27:10;;;;;;;;;2.20;2.20;;;;;21.79;46.95;98522.28;5033102;28;8881;-80
2022/09/30 01:30:11;;;;;;;;;2.80;2.80;;;;;21.96;46.83;98518.56;5044131;28;8873;-82
2022/09/30 01:33:02;;;;;;;;;3.80;3.00;;;;;22.05;46.85;98510.97;5038839;28;8850;-79
2022/09/30 01:35:44;;;;;;;;;2.00;2.00;;;;;22.06;46.43;98516.19;5057511;28;8870;-81
2022/09/30 01:38:21;;;;;;;;;2.40;1.40;;;;;22.12;46.24;98513.13;5072072;28;8861;-81
2022/09/30 01:41:00;;;;;;;;;2.00;2.00;;;;;22.30;45.93;98513.75;5071876;28;8834;-82
2022/09/30 01:43:41;;;;;;;;;3.00;2.00;;;;;22.44;45.74;98506.69;5049197;28;8857;-81
2022/09/30 01:46:21;;;;;;;;;3.00;3.00;;;;;22.48;45.53;98494.94;5060222;28;8866;-81
2022/09/30 01:49:02;;;;;;;;;3.00;3.00;;;;;22.58;45.23;98498.66;5053399;28;8858;-84
2022/09/30 01:51:39;;;;;;;;;2.80;2.80;;;;;22.60;45.65;98477.31;5069551;28;9681;-84
2022/09/30 01:54:13;;;;;;;;;2.60;2.60;;;;;22.56;45.30;98479.31;5050508;28;8853;-80
2022/09/30 01:56:46;;;;;;;;;2.00;2.00;;;;;22.51;45.11;98481.41;5049454;28;9835;-82
2022/09/30 01:59:20;;;;;;;;;2.00;2.00;;;;;22.49;45.17;98494.81;5048907;28;8879;-85
2022/09/30 02:01:55;;;;;;;;;3.00;3.00;;;;;22.50;44.91;98493.03;5050116;28;8852;-82
2022/09/30 02:04:31;;;;;;;;;2.60;2.60;;;;;22.55;44.66;98504.16;5051403;28;9599;-79
2022/09/30 02:07:06;;;;;;;;;2.00;2.00;;;;;22.56;44.38;98490.78;5051291;28;8862;-84
2022/09/30 02:09:40;;;;;;;;;2.80;2.00;;;;;22.65;44.56;98477.88;5067847;28;9651;-82
2022/09/30 02:12:15;;;;;;;;;2.60;2.60;;;;;22.67;44.56;98478.59;5068127;28;8972;-82
2022/09/30 02:14:48;;;;;;;;;1.00;1.00;;;;;22.63;44.69;98493.91;5046226;28;8884;-79
2022/09/30 02:17:23;;;;;;;;;2.40;2.40;;;;;22.63;44.46;98501.00;5047041;28;8872;-81
2022/09/30 02:19:59;;;;;;;;;2.20;2.20;;;;;22.72;44.39;98497.72;5013501;28;9645;-79
2022/09/30 02:22:43;;;;;;;;;1.00;1.00;;;;;22.67;44.43;98481.25;5043933;28;8887;-81
2022/09/30 02:25:19;;;;;;;;;2.00;2.00;;;;;22.71;44.75;98464.16;5045410;28;8888;-81
2022/09/30 02:27:55;;;;;;;;;3.40;2.60;;;;;22.70;44.97;98460.66;5044989;28;8853;-82
2022/09/30 02:30:23;;;;;;;;;3.00;3.00;;;;;22.63;45.18;98462.00;5044842;28;8884;-82
2022/09/30 02:32:59;;;;;;;;;2.00;2.00;;;;;22.64;45.15;98471.66;4979095;28;9832;-80
2022/09/30 02:35:34;;;;;;;;;2.00;2.00;;;;;22.64;45.24;98462.84;5011528;28;8920;-81
2022/09/30 02:38:10;;;;;;;;;1.80;1.40;;;;;22.57;45.92;98465.94;5027828;28;8872;-81
2022/09/30 02:40:43;;;;;;;;;2.00;2.00;;;;;22.45;46.80;98474.72;5011796;28;8891;-82
2022/09/30 02:43:12;;;;;;;;;1.60;1.60;;;;;22.40;47.18;98474.19;5045137;28;8857;-80
2022/09/30 02:45:48;;;;;;;;;2.00;2.00;;;;;22.41;47.30;98475.88;5015414;28;8902;-81
2022/09/30 02:48:28;;;;;;;;;2.00;2.00;;;;;22.41;47.41;98475.88;5066485;28;9597;-83
2022/09/30 02:51:05;;;;;;;;;1.00;1.00;;;;;22.39;47.29;98456.53;5065978;28;8858;-82
2022/09/30 02:53:39;;;;;;;;;1.60;1.60;;;;;22.40;47.53;98458.25;5050478;28;8861;-82
2022/09/30 02:56:23;;;;;;;;;2.00;2.00;;;;;22.41;47.45;98459.09;5065239;28;8850;-85
2022/09/30 02:58:55;;;;;;;;;2.40;2.40;;;;;22.24;47.91;98457.53;5070979;28;8881;-82
2022/09/30 03:01:25;;;;;;;;;2.00;2.00;;;;;22.22;47.91;98451.47;5075106;28;8867;-82
2022/09/30 03:03:57;;;;;;;;;1.00;1.00;;;;;22.18;47.89;98453.47;5071613;28;8850;-80
2022/09/30 03:06:28;;;;;;;;;2.20;2.20;;;;;22.16;48.21;98450.91;5059959;28;9649;-80
2022/09/30 03:08:57;;;;;;;;;6.80;4.00;;;;;22.14;48.32;98451.97;5072106;28;8873;-81
2022/09/30 03:11:28;;;;;;;;;2.80;2.80;;;;;22.24;48.01;98457.53;5051744;28;8875;-79
2022/09/30 03:14:23;;;;;;;;;4.80;4.00;;;;;22.34;47.91;98471.91;5033815;28;8957;-82
2022/09/30 03:17:18;;;;;;;;;1.60;1.60;;;;;22.41;47.39;98467.06;5070492;28;8900;-82
2022/09/30 03:20:03;;;;;;;;;1.00;1.00;;;;;22.27;48.07;98473.25;5069325;28;8872;-82
2022/09/30 03:22:54;;;;;;;;;1.20;1.20;;;;;22.29;48.14;98490.81;5084233;28;8877;-81
2022/09/30 03:25:35;;;;;;;;;2.00;2.00;;;;;22.39;48.09;98502.53;5048691;28;8860;-81
2022/09/30 03:28:17;;;;;;;;;2.00;2.00;;;;;22.28;48.25;98486.44;5045437;28;9789;-85
2022/09/30 03:30:55;;;;;;;;;2.00;2.00;;;;;22.35;48.28;98497.53;5053040;28;8960;-81
2022/09/30 03:33:32;;;;;;;;;2.00;2.00;;;;;22.27;48.14;98491.84;5071195;28;8864;-81
2022/09/30 03:36:05;;;;;;;;;1.20;1.20;;;;;22.26;48.64;98492.81;5072594;28;8848;-81
2022/09/30 03:38:48;;;;;;;;;1.00;1.00;;;;;22.35;48.87;98508.16;5055209;28;8851;-81
2022/09/30 03:41:23;;;;;;;;;1.00;1.00;;;;;22.43;48.65;98500.53;5052828;28;8860;-82
2022/09/30 03:44:01;;;;;;;;;3.40;2.60;;;;;22.56;48.47;98501.41;5035742;28;8875;-81
2022/09/30 03:46:35;;;;;;;;;4.60;4.60;;;;;22.64;48.18;98516.84;5018280;28;8887;-81
2022/09/30 03:49:10;;;;;;;;;2.20;2.20;;;;;22.75;48.25;98532.09;5068147;28;8854;-79
2022/09/30 03:51:41;;;;;;;;;1.20;1.20;;;;;22.80;47.80;98545.94;5051487;28;8874;-80
2022/09/30 03:54:13;;;;;;;;;2.00;2.00;;;;;22.57;48.62;98539.47;5056700;28;8883;-80
2022/09/30 03:56:42;;;;;;;;;2.00;2.00;;;;;22.48;48.77;98535.63;5059708;28;8865;-80
2022/09/30 03:59:13;;;;;;;;;1.40;1.40;;;;;22.59;48.97;98529.63;5072472;28;8855;-80
2022/09/30 04:01:41;;;;;;;;;12.60;12.60;;;;;22.63;49.18;98535.56;5047250;28;8865;-80
2022/09/30 04:04:12;;;;;;;;;7.60;7.60;;;;;22.59;49.60;98545.56;5071348;28;8923;-79
2022/09/30 04:06:40;;;;;;;;;5.40;5.00;;;;;22.68;50.03;98554.72;5069443;28;8862;-84
2022/09/30 04:09:10;;;;;;;;;2.00;2.00;;;;;22.41;50.56;98560.03;5036948;28;8852;-83
2022/09/30 04:11:39;;;;;;;;;3.00;3.00;;;;;22.62;50.40;98555.97;5070137;28;8858;-87
2022/09/30 04:14:08;;;;;;;;;3.00;3.00;;;;;22.42;51.21;98557.28;5052812;28;8865;-83
2022/09/30 04:16:36;;;;;;;;;3.80;3.80;;;;;22.42;51.92;98554.63;5070203;28;8866;-84
2022/09/30 04:19:05;;;;;;;;;3.40;2.00;;;;;22.48;50.56;98551.56;5088985;28;8945;-83
2022/09/30 04:21:33;;;;;;;;;1.60;1.60;;;;;22.62;50.39;98558.63;5073293;28;8834;-81
2022/09/30 04:24:02;;;;;;;;;3.60;2.40;;;;;22.73;50.50;98541.97;5073361;28;8862;-82
2022/09/30 04:26:32;;;;;;;;;2.80;1.60;;;;;22.75;50.88;98526.78;5073862;28;9556;-79
2022/09/30 04:29:00;;;;;;;;;2.00;2.00;;;;;22.67;51.23;98529.09;5073195;28;8858;-80
2022/09/30 04:31:29;;;;;;;;;2.00;2.00;;;;;22.73;51.15;98526.88;5056017;28;8854;-82
2022/09/30 04:33:58;;;;;;;;;2.00;2.00;;;;;22.73;51.04;98529.53;5071638;28;8928;-82
2022/09/30 04:36:26;;;;;;;;;4.60;4.60;;;;;22.82;50.83;98529.88;5089169;28;8873;-82
2022/09/30 04:38:55;;;;;;;;;3.00;3.00;;;;;22.91;51.20;98537.22;5073009;28;8834;-82
2022/09/30 04:41:24;;;;;;;;;3.00;3.00;;;;;22.86;50.96;98539.34;5089276;28;9466;-81
2022/09/30 04:43:54;;;;;;;;;1.00;1.00;;;;;22.80;50.59;98547.72;5072963;28;8854;-83
2022/09/30 04:46:23;;;;;;;;;3.00;3.00;;;;;22.78;50.72;98553.16;5069587;28;8844;-81
2022/09/30 04:48:52;;;;;;;;;1.60;1.20;;;;;22.82;50.45;98564.44;5035330;28;8894;-84
2022/09/30 04:51:21;;;;;;;;;2.80;2.80;;;;;22.41;52.31;98550.25;5052766;28;8873;-83
2022/09/30 04:53:50;;;;;;;;;1.60;1.60;;;;;22.44;52.11;98557.16;5069826;28;8905;-83
2022/09/30 04:56:18;;;;;;;;;2.00;2.00;;;;;22.54;51.97;98558.28;5071379;28;8967;-83
2022/09/30 04:58:47;;;;;;;;;2.00;2.00;;;;;22.62;51.80;98563.09;5035375;28;8903;-81
2022/09/30 05:01:18;;;;;;;;;3.00;2.60;;;;;22.53;51.98;98564.53;5034666;28;8852;-80
2022/09/30 05:03:47;;;;;;;;;3.00;3.00;;;;;22.38;52.18;98582.31;5017486;28;8869;-80
2022/09/30 05:06:16;;;;;;;;;1.00;1.00;;;;;22.44;52.04;98581.94;5049219;28;8862;-81
2022/09/30 05:08:45;;;;;;;;;1.60;1.60;;;;;22.33;52.47;98598.56;5056376;28;8885;-80
2022/09/30 05:11:17;;;;;;;;;3.00;3.00;;;;;22.25;53.04;98608.84;5070809;28;8896;-81
2022/09/30 05:13:47;;;;;;;;;2.20;2.20;;;;;22.41;52.89;98610.50;5036607;28;8846;-80
2022/09/30 05:16:17;;;;;;;;;7.40;6.40;;;;;22.26;54.10;98610.53;5069413;28;8872;-80
2022/09/30 05:18:46;;;;;;;;;5.20;4.60;;;;;22.09;54.51;98614.22;5072987;28;8988;-82
2022/09/30 05:21:18;;;;;;;;;4.00;4.00;;;;;22.17;53.94;98627.88;5076572;28;8846;-82
2022/09/30 05:23:47;;;;;;;;;7.40;4.80;;;;;22.03;54.99;98638.50;5050357;28;8870;-80
2022/09/30 05:26:16;;;;;;;;;3.60;3.00;;;;;22.25;53.67;98656.66;5063550;28;8861;-81
2022/09/30 05:28:45;;;;;;;;;2.00;2.00;;;;;22.29;53.64;98658.16;5070147;28;8854;-82
2022/09/30 05:31:13;;;;;;;;;4.20;3.80;;;;;22.49;53.25;98645.41;5071881;28;8900;-81
2022/09/30 05:33:43;;;;;;;;;2.80;2.20;;;;;22.56;53.16;98654.69;5049442;28;8873;-85
2022/09/30 05:36:15;;;;;;;;;3.60;3.00;;;;;22.55;53.41;98652.97;5034531;28;8857;-83
2022/09/30 05:38:44;;;;;;;;;3.00;3.00;;;;;22.64;53.08;98651.53;5051629;28;8908;-83
2022/09/30 05:41:14;;;;;;;;;3.80;3.00;;;;;22.73;52.93;98645.63;5067788;28;8894;-83
2022/09/30 05:43:46;;;;;;;;;4.40;3.40;;;;;22.66;53.14;98653.13;5065513;28;8873;-82
2022/09/30 05:46:17;;;;;;;;;3.40;3.00;;;;;22.69;53.42;98654.75;5038460;28;8938;-82
2022/09/30 05:48:47;;;;;;;;;3.00;3.00;;;;;22.78;53.59;98662.16;5068588;28;8862;-82
2022/09/30 05:51:16;;;;;;;;;3.20;3.20;;;;;22.69;53.73;98665.41;5071323;28;8842;-82
2022/09/30 05:53:45;;;;;;;;;3.00;3.00;;;;;22.74;53.56;98666.81;5068947;28;8846;-84
2022/09/30 05:56:14;;;;;;;;;5.00;4.60;;;;;22.82;53.62;98671.63;5067713;28;8842;-81
2022/09/30 05:58:42;;;;;;;;;5.40;5.00;;;;;22.85;53.77;98662.59;5065809;28;8885;-83
2022/09/30 06:01:15;;;;;;;;;6.80;6.80;;;;;22.86;54.00;98669.63;5068654;28;8842;-83
2022/09/30 06:03:47;;;;;;;;;4.60;4.60;;;;;22.83;54.26;98668.00;5068026;28;9038;-82
2022/09/30 06:06:16;;;;;;;;;6.20;6.20;;;;;22.86;54.48;98682.91;5068163;28;8862;-83
2022/09/30 06:08:45;;;;;;;;;6.80;5.80;;;;;22.91;54.91;98675.47;5050880;28;8873;-82
2022/09/30 06:11:16;;;;;;;;;6.40;6.00;;;;;23.00;54.31;98668.72;5064519;28;9437;-80
2022/09/30 06:13:47;;;;;;;;;7.00;5.00;;;;;23.05;54.08;98685.25;5066863;28;8874;-80
2022/09/30 06:16:17;;;;;;;;;8.40;6.40;;;;;23.11;54.06;98698.97;5037442;28;8860;-80
2022/09/30 06:18:47;;;;;;;;;4.80;3.60;;;;;23.14;53.87;98680.19;5071992;28;8854;-80
2022/09/30 06:21:16;;;;;;;;;5.40;5.40;;;;;23.32;53.46;98694.03;5070193;28;8866;-82
2022/09/30 06:23:46;;;;;;;;;4.40;3.80;;;;;23.32;53.38;98695.84;5037703;28;8841;-82
2022/09/30 06:26:15;;;;;;;;;4.40;4.20;;;;;23.29;53.36;98707.56;4994780;28;8920;-84
2022/09/30 06:28:44;;;;;;;;;6.00;5.80;;;;;23.39;53.53;98714.94;5009210;28;8872;-81
2022/09/30 06:31:13;;;;;;;;;8.80;8.80;;;;;23.52;53.11;98716.66;5046159;28;8861;-82
2022/09/30 06:33:42;;;;;;;;;7.60;6.60;;;;;23.71;53.07;98723.41;4989320;28;8858;-83
2022/09/30 06:36:14;;;;;;;;;4.60;4.60;;;;;23.68;52.71;98724.47;4971530;28;8876;-82
2022/09/30 06:38:44;;;;;;;;;5.60;5.40;;;;;23.73;52.56;98727.66;4972027;28;8979;-81
2022/09/30 06:41:13;;;;;;;;;5.80;5.80;;;;;23.11;54.37;98741.53;4936080;28;8873;-84
2022/09/30 06:43:42;;;;;;;;;8.60;7.60;;;;;22.17;57.82;98755.38;4993220;28;8900;-83
2022/09/30 06:46:31;;;;;;;;;9.60;7.00;;;;;22.65;56.46;98749.78;4979075;28;8923;-80
2022/09/30 06:49:00;;;;;;;;;8.00;6.80;;;;;22.97;55.40;98747.72;4976822;28;8917;-83
2022/09/30 06:51:42;;;;;;;;;4.60;4.60;;;;;23.18;54.94;98751.81;4996404;28;8958;-69
2022/09/30 06:54:11;;;;;;;;;5.40;5.40;;;;;23.45;54.04;98757.09;5063839;28;8834;-71
2022/09/30 06:56:39;;;;;;;;;6.00;6.00;;;;;23.81;53.10;98761.78;5067945;28;8854;-74
2022/09/30 06:59:08;;;;;;;;;11.80;10.80;;;;;24.12;52.52;98762.34;5058359;28;8845;-76
2022/09/30 07:01:37;;;;;;;;;7.60;7.20;;;;;23.43;53.96;98769.66;5065118;28;9013;-78
2022/09/30 07:04:08;;;;;;;;;7.20;7.20;;;;;22.68;56.09;98773.50;5031163;28;8897;-75
2022/09/30 07:06:38;;;;;;;;;5.00;5.00;;;;;23.10;55.03;98765.56;5048524;28;8846;-77
2022/09/30 07:09:09;;;;;;;;;6.40;6.40;;;;;23.38;53.72;98769.09;4998341;28;8912;-76
2022/09/30 07:11:38;;;;;;;;;6.20;5.40;;;;;23.79;52.84;98777.03;5046950;28;8954;-74
2022/09/30 07:14:09;;;;;;;;;5.80;4.40;;;;;24.11;52.20;98782.81;5066131;28;8862;-77
2022/09/30 07:16:37;;;;;;;;;6.60;6.00;;;;;24.43;52.04;98786.88;5067134;28;9689;-74
2022/09/30 07:19:08;;;;;;;;;4.40;4.40;;;;;24.54;51.77;98795.03;5040964;28;8872;-76
2022/09/30 07:21:37;;;;;;;;;5.00;5.00;;;;;24.80;50.43;98795.84;5052888;28;8934;-76
2022/09/30 07:24:06;;;;;;;;;4.80;4.20;;;;;24.89;49.52;98795.16;5059848;28;8942;-75
2022/09/30 07:26:35;;;;;;;;;6.80;6.80;;;;;24.90;49.05;98804.88;5052045;28;8991;-78
2022/09/30 07:29:06;;;;;;;;;7.00;7.00;;;;;24.96;48.95;98802.75;5065966;28;8892;-74
2022/09/30 07:31:34;;;;;;;;;4.40;4.40;;;;;24.98;48.28;98811.50;5046241;28;8876;-75
2022/09/30 07:34:05;;;;;;;;;6.40;6.00;;;;;24.89;48.84;98813.84;5024475;28;8971;-77
2022/09/30 07:36:36;;;;;;;;;7.40;6.60;;;;;24.39;49.73;98831.56;5078026;28;8910;-76
2022/09/30 07:39:08;;;;;;;;;3.20;2.60;;;;;23.84;50.78;98844.16;5042448;28;9673;-76
2022/09/30 07:41:39;;;;;;;;;6.40;4.60;;;;;24.15;50.29;98842.06;5043261;28;8945;-76
2022/09/30 07:44:13;;;;;;;;;6.60;5.40;;;;;23.99;50.82;98836.94;5054867;28;8849;-77
2022/09/30 07:46:44;;;;;;;;;10.00;9.00;;;;;24.32;49.99;98830.25;5040360;28;8986;-76
2022/09/30 07:49:23;;;;;;;;;5.40;5.40;;;;;24.42;50.02;98841.97;4990762;28;8904;-76
2022/09/30 07:51:54;;;;;;;;;9.20;9.20;;;;;24.27;50.24;98840.38;5007779;28;8927;-77
2022/09/30 07:54:26;;;;;;;;;16.40;15.40;;;;;23.96;50.92;98845.13;5027229;28;8896;-76
2022/09/30 07:56:57;;;;;;;;;8.40;8.20;;;;;24.46;49.46;98837.28;5043932;28;8853;-76
2022/09/30 07:59:40;;;;;;;;;7.00;7.00;;;;;24.69;48.93;98844.59;5047049;28;8885;-75
2022/09/30 08:02:14;;;;;;;;;7.80;7.80;;;;;24.94;48.85;98844.69;5014229;28;8841;-76
2022/09/30 08:04:43;;;;;;;;;8.00;8.00;;;;;25.05;48.35;98842.94;5043774;28;9671;-76
2022/09/30 17:36:05;;;;;;;;;8.80;8.00;;;;;22.95;57.30;99175.09;5101041;27;1381492;-79
2022/09/30 17:38:34;;;;;;;;;7.60;7.60;;;;;23.35;56.15;99177.28;5090989;27;9383;-75
2022/09/30 17:43:51;;;;;;;;;8.80;8.80;;;;;24.11;53.05;99173.59;5132509;27;8830;-76
2022/09/30 17:46:22;;;;;;;;;6.60;6.00;;;;;24.38;52.05;99180.78;5127803;27;8972;-76
2022/09/30 17:48:55;;;;;;;;;5.60;5.60;;;;;24.59;50.99;99187.44;5077490;27;8843;-76
2022/09/30 17:51:25;;;;;;;;;6.60;6.60;;;;;24.76;50.55;99190.84;5126130;27;8844;-76
2022/09/30 17:53:54;;;;;;;;;6.20;6.20;;;;;24.86;49.94;99190.16;5125152;27;8835;-77
2022/09/30 17:56:23;;;;;;;;;7.60;6.40;;;;;24.93;49.81;99193.25;5125765;27;8932;-77
2022/09/30 17:58:51;;;;;;;;;7.40;5.20;;;;;25.07;49.63;99197.69;5125581;27;8868;-76
2022/09/30 18:01:21;;;;;;;;;7.20;6.80;;;;;25.17;49.63;99197.94;5056390;27;8839;-76
2022/09/30 18:03:51;;;;;;;;;18.00;16.80;;;;;25.27;49.31;99199.06;5125141;27;8847;-78
2022/09/30 18:06:20;;;;;;;;;6.60;6.00;;;;;25.25;49.62;99193.81;5106457;27;8836;-77
2022/09/30 18:08:51;;;;;;;;;4.00;4.00;;;;;25.27;49.14;99207.06;5115478;27;8960;-78
2022/09/30 18:11:21;;;;;;;;;12.00;12.00;;;;;25.23;48.86;99211.75;5107016;27;8844;-75
2022/09/30 18:13:56;;;;;;;;;6.20;4.00;;;;;25.35;48.50;99210.09;5106923;27;8851;-75
2022/09/30 18:16:29;;;;;;;;;9.20;8.20;;;;;25.40;48.16;99212.44;5125514;27;8988;-76
2022/09/30 18:18:59;;;;;;;;;6.40;6.40;;;;;25.46;48.10;99214.69;5125856;27;8840;-78
2022/09/30 18:21:28;;;;;;;;;7.00;6.20;;;;;25.51;47.89;99217.06;5112559;27;8840;-76
2022/09/30 18:24:00;;;;;;;;;8.00;7.00;;;;;25.62;47.89;99211.84;5126519;27;8835;-76
2022/09/30 18:26:31;;;;;;;;;10.80;10.60;;;;;25.72;47.58;99212.06;5107432;27;8878;-77
2022/09/30 18:29:04;;;;;;;;;13.00;12.00;;;;;25.73;47.40;99219.13;5125655;27;8835;-79
2022/09/30 18:31:35;;;;;;;;;10.60;9.60;;;;;25.77;47.80;99224.16;5106569;27;8924;-76
2022/09/30 18:34:06;;;;;;;;;9.60;8.00;;;;;25.80;47.89;99226.63;5105131;27;8868;-76
2022/09/30 18:36:36;;;;;;;;;9.00;9.00;;;;;25.72;47.57;99218.25;5124628;27;8857;-74
2022/09/30 18:39:06;;;;;;;;;10.20;9.40;;;;;25.71;47.57;99226.38;5145466;27;8865;-76
2022/09/30 18:41:37;;;;;;;;;6.80;6.80;;;;;25.63;48.52;99233.13;5145613;27;9757;-78
2022/09/30 18:44:12;;;;;;;;;8.40;8.20;;;;;25.61;48.57;99236.84;5096049;27;8845;-75
2022/09/30 18:46:41;;;;;;;;;7.00;6.60;;;;;25.63;48.35;99234.91;5135799;27;8837;-74
2022/09/30 18:49:10;;;;;;;;;8.20;8.20;;;;;25.61;48.34;99237.69;5112778;27;8873;-77
2022/09/30 18:51:39;;;;;;;;;9.40;8.80;;;;;25.60;48.57;99235.16;5075301;28;8847;-76
2022/09/30 18:54:10;;;;;;;;;11.20;11.20;;;;;25.51;48.61;99238.44;5110908;28;10286;-75
2022/09/30 18:56:38;;;;;;;;;12.40;10.80;;;;;25.54;48.83;99240.88;5134934;27;8857;-77
2022/09/30 18:59:07;;;;;;;;;14.20;12.60;;;;;25.50;48.72;99240.25;5139455;27;8983;-76
2022/09/30 19:01:36;;;;;;;;;12.80;11.60;;;;;25.46;48.53;99239.59;5132191;27;8835;-77
2022/09/30 19:04:06;;;;;;;;;22.80;21.40;;;;;25.42;48.39;99234.56;5115513;28;8912;-74
2022/09/30 19:06:35;;;;;;;;;25.00;24.75;;;;;25.04;51.05;99233.44;5078749;28;8856;-76
2022/09/30 19:09:05;;;;;;;;;17.00;17.00;;;;;24.89;51.20;99237.09;5109344;28;8947;-74
2022/09/30 19:11:36;;;;;;;;;22.80;21.40;;;;;25.02;50.56;99246.00;5114144;27;8877;-77
2022/09/30 19:14:05;;;;;;;;;16.40;16.20;;;;;25.13;50.06;99239.97;5093046;28;8962;-75
2022/09/30 19:16:37;;;;;;;;;18.00;18.00;;;;;25.22;50.36;99238.53;5122113;27;8861;-76
2022/09/30 19:19:09;;;;;;;;;15.20;14.60;;;;;25.26;49.97;99232.91;5063589;27;8990;-75
2022/09/30 19:21:38;;;;;;;;;18.40;18.00;;;;;25.32;49.75;99234.31;5130727;27;9412;-75
2022/09/30 19:24:08;;;;;;;;;16.20;14.20;;;;;25.35;49.75;99235.91;5112171;27;8937;-75
2022/09/30 19:26:39;;;;;;;;;18.00;16.40;;;;;25.35;49.12;99238.59;5110937;27;8875;-77
2022/09/30 19:29:10;;;;;;;;;20.60;18.40;;;;;25.25;48.46;99236.53;5130749;27;8821;-77
2022/09/30 19:31:38;;;;;;;;;11.60;10.60;;;;;25.05;47.45;99232.47;5063553;28;9660;-77
2022/09/30 19:34:09;;;;;;;;;9.00;7.40;;;;;24.80;46.73;99229.69;5090283;28;8916;-75
2022/09/30 19:36:39;;;;;;;;;9.40;8.80;;;;;24.72;46.84;99230.19;5074480;28;8856;-75
2022/09/30 19:39:19;;;;;;;;;10.00;10.00;;;;;24.69;46.78;99227.72;5075055;28;8855;-77
2022/09/30 19:41:49;;;;;;;;;12.40;9.80;;;;;24.66;46.70;99225.25;5090551;28;8956;-76
2022/09/30 19:44:18;;;;;;;;;11.40;11.40;;;;;24.61;47.17;99230.88;5090600;28;8874;-76
2022/09/30 19:46:49;;;;;;;;;7.00;7.00;;;;;24.51;46.82;99227.91;5110069;28;8906;-74
2022/09/30 19:49:20;;;;;;;;;12.80;10.20;;;;;24.46;46.75;99226.47;5057615;28;8840;-77
2022/09/30 19:51:51;;;;;;;;;9.80;8.80;;;;;24.51;46.68;99225.25;5108204;28;8836;-77
2022/09/30 19:54:22;;;;;;;;;10.80;10.80;;;;;24.36;47.11;99228.00;5074219;28;8898;-75
2022/09/30 19:57:07;;;;;;;;;14.40;11.20;;;;;24.50;46.78;99234.19;5090503;28;8852;-75
2022/09/30 19:59:35;;;;;;;;;14.00;13.80;;;;;24.55;46.80;99246.41;5061862;28;8858;-75
2022/09/30 20:02:04;;;;;;;;;11.00;9.60;;;;;24.55;46.58;99244.59;5080228;28;8968;-78
2022/09/30 20:04:34;;;;;;;;;13.00;12.00;;;;;24.64;46.21;99246.66;5109470;28;8832;-77
2022/09/30 20:07:03;;;;;;;;;15.40;13.60;;;;;24.70;46.28;99243.59;5090206;28;8848;-76
2022/09/30 20:09:32;;;;;;;;;14.00;11.80;;;;;24.75;46.00;99235.31;5109661;28;8863;-78
2022/09/30 20:12:01;;;;;;;;;11.60;10.60;;;;;24.80;45.48;99243.03;5074329;28;9052;-76
2022/09/30 20:17:17;;;;;;;;;10.60;9.40;;;;;24.31;46.36;99242.50;5091183;28;8844;-76
2022/09/30 20:20:33;;;;;;;;;12.80;10.40;;;;;24.23;46.57;99239.41;5057242;28;8832;-75
2022/09/30 20:22:35;;;;;;;;;14.00;11.20;;;;;24.32;46.57;99240.66;5109248;28;8827;-76
2022/09/30 20:25:05;;;;;;;;;8.20;8.20;;;;;24.35;46.29;99237.81;5065669;28;8864;-75
2022/09/30 20:27:34;;;;;;;;;8.00;8.00;;;;;24.40;46.38;99238.38;5025753;28;8860;-76
2022/09/30 20:30:06;;;;;;;;;11.00;10.00;;;;;24.42;46.13;99233.78;5025404;28;8887;-75
2022/09/30 20:32:34;;;;;;;;;7.00;7.00;;;;;24.52;46.27;99245.66;5033409;28;9612;-76
2022/09/30 20:35:03;;;;;;;;;10.20;9.80;;;;;24.54;45.87;99242.88;5045218;28;9755;-76
2022/09/30 20:37:32;;;;;;;;;9.40;8.20;;;;;24.58;46.01;99246.22;5045554;28;8878;-75
2022/09/30 20:40:02;;;;;;;;;7.80;7.00;;;;;24.62;45.86;99250.41;5045563;28;9631;-75
2022/09/30 20:42:31;;;;;;;;;7.20;7.00;;;;;24.52;46.17;99248.31;5045631;28;8882;-76
2022/09/30 20:45:01;;;;;;;;;0.60;0.00;;;;;24.38;47.05;99250.94;5045871;28;8865;-78
2022/09/30 20:47:32;;;;;;;;;8.20;8.20;;;;;24.26;47.40;99252.56;5045368;28;8982;-76
2022/09/30 20:50:00;;;;;;;;;8.40;7.60;;;;;24.02;48.23;99256.72;5044256;28;8974;-77
2022/09/30 20:52:29;;;;;;;;;7.40;7.00;;;;;23.86;48.47;99252.34;5028875;28;8885;-79
2022/09/30 20:54:59;;;;;;;;;9.40;8.80;;;;;23.85;48.82;99255.09;5045870;28;8842;-75
2022/09/30 20:57:28;;;;;;;;;10.60;10.60;;;;;23.90;48.58;99266.34;5081755;28;8875;-75
2022/09/30 20:59:58;;;;;;;;;8.60;8.60;;;;;23.97;47.97;99262.34;5090069;28;8952;-77
2022/09/30 21:02:28;;;;;;;;;8.00;8.00;;;;;23.97;47.58;99259.69;5124510;27;8839;-76
2022/09/30 21:04:58;;;;;;;;;9.20;8.00;;;;;23.99;47.37;99260.44;5090888;28;8867;-76
2022/09/30 21:07:27;;;;;;;;;7.20;7.20;;;;;24.04;46.10;99269.00;5102600;28;8993;-76
2022/09/30 21:09:56;;;;;;;;;10.20;7.60;;;;;23.90;45.89;99266.34;5071748;28;8911;-77
2022/09/30 21:12:25;;;;;;;;;8.80;8.40;;;;;23.94;45.58;99268.69;5085187;28;8865;-75
2022/09/30 21:14:54;;;;;;;;;10.20;10.00;;;;;24.04;45.17;99277.00;5085628;28;8962;-80
2022/09/30 21:17:23;;;;;;;;;10.00;9.80;;;;;23.88;44.96;99281.56;5068745;28;8853;-74
2022/09/30 21:19:52;;;;;;;;;5.80;5.60;;;;;23.88;44.86;99290.38;5068542;28;8870;-75
2022/09/30 21:22:22;;;;;;;;;8.40;8.00;;;;;23.96;44.49;99283.75;5089633;28;8916;-76
2022/09/30 21:24:51;;;;;;;;;6.40;5.60;;;;;23.90;44.48;99283.16;5088548;28;8971;-76
2022/09/30 21:27:21;;;;;;;;;7.00;7.00;;;;;23.78;45.00;99286.53;5105671;28;8844;-76
2022/09/30 21:29:49;;;;;;;;;8.60;6.60;;;;;23.88;45.30;99286.88;5105796;28;8847;-76
2022/09/30 21:32:19;;;;;;;;;10.20;8.40;;;;;23.83;45.47;99280.97;5105095;28;8865;-76
2022/09/30 21:34:48;;;;;;;;;8.40;7.00;;;;;23.70;45.68;99281.63;5105265;28;8874;-75
2022/09/30 21:37:16;;;;;;;;;7.40;7.40;;;;;23.85;45.11;99284.38;5088570;28;8893;-75